sensor_id;sensor_type;location;lat;lon;timestamp;P1;durP1;ratioP1;P2;durP2;ratioP2
55330;SDS011;58851;42.984;20.336;2023-10-09T00:00:57;29.13;;;13.38;;
55330;SDS011;58851;42.984;20.336;2023-10-09T00:03:41;32.00;;;17.02;;
55330;SDS011;58851;42.984;20.336;2023-10-09T00:06:08;43.25;;;23.70;;
55330;SDS011;58851;42.984;20.336;2023-10-09T00:08:37;33.40;;;17.45;;
55330;SDS011;58851;42.984;20.336;2023-10-09T00:11:04;30.27;;;17.52;;
55330;SDS011;58851;42.984;20.336;2023-10-09T00:13:44;31.45;;;14.57;;
55330;SDS011;58851;42.984;20.336;2023-10-09T00:16:15;33.65;;;15.38;;
55330;SDS011;58851;42.984;20.336;2023-10-09T00:18:42;29.15;;;17.20;;
55330;SDS011;58851;42.984;20.336;2023-10-09T00:21:18;42.03;;;15.73;;
55330;SDS011;58851;42.984;20.336;2023-10-09T00:23:48;28.08;;;14.73;;
55330;SDS011;58851;42.984;20.336;2023-10-09T00:26:24;35.63;;;18.95;;
55330;SDS011;58851;42.984;20.336;2023-10-09T00:28:51;34.25;;;17.02;;
55330;SDS011;58851;42.984;20.336;2023-10-09T00:31:17;32.40;;;15.55;;
55330;SDS011;58851;42.984;20.336;2023-10-09T00:33:58;46.78;;;25.98;;
55330;SDS011;58851;42.984;20.336;2023-10-09T00:36:30;42.50;;;22.33;;
55330;SDS011;58851;42.984;20.336;2023-10-09T00:38:57;27.10;;;16.23;;
55330;SDS011;58851;42.984;20.336;2023-10-09T00:41:30;25.67;;;14.95;;
55330;SDS011;58851;42.984;20.336;2023-10-09T00:44:00;28.40;;;16.88;;
55330;SDS011;58851;42.984;20.336;2023-10-09T00:46:26;32.95;;;20.33;;
55330;SDS011;58851;42.984;20.336;2023-10-09T00:48:56;34.38;;;17.75;;
55330;SDS011;58851;42.984;20.336;2023-10-09T00:51:26;30.42;;;17.02;;
55330;SDS011;58851;42.984;20.336;2023-10-09T00:53:59;64.60;;;27.83;;
55330;SDS011;58851;42.984;20.336;2023-10-09T00:56:48;54.55;;;25.73;;
55330;SDS011;58851;42.984;20.336;2023-10-09T00:59:22;64.03;;;30.35;;
55330;SDS011;58851;42.984;20.336;2023-10-09T01:01:50;49.55;;;21.67;;
55330;SDS011;58851;42.984;20.336;2023-10-09T01:04:24;43.00;;;21.52;;
55330;SDS011;58851;42.984;20.336;2023-10-09T01:06:53;32.05;;;16.20;;
55330;SDS011;58851;42.984;20.336;2023-10-09T01:09:38;28.77;;;16.13;;
55330;SDS011;58851;42.984;20.336;2023-10-09T01:12:08;40.80;;;20.60;;
55330;SDS011;58851;42.984;20.336;2023-10-09T01:14:42;52.28;;;29.52;;
55330;SDS011;58851;42.984;20.336;2023-10-09T01:17:09;31.48;;;16.05;;
55330;SDS011;58851;42.984;20.336;2023-10-09T01:19:36;32.15;;;14.88;;
55330;SDS011;58851;42.984;20.336;2023-10-09T01:22:02;28.98;;;13.90;;
55330;SDS011;58851;42.984;20.336;2023-10-09T01:24:41;23.60;;;13.63;;
55330;SDS011;58851;42.984;20.336;2023-10-09T01:27:08;34.92;;;18.67;;
55330;SDS011;58851;42.984;20.336;2023-10-09T01:29:40;37.95;;;15.13;;
55330;SDS011;58851;42.984;20.336;2023-10-09T01:32:08;44.67;;;21.27;;
55330;SDS011;58851;42.984;20.336;2023-10-09T01:34:48;30.90;;;14.98;;
55330;SDS011;58851;42.984;20.336;2023-10-09T01:37:15;25.75;;;14.15;;
55330;SDS011;58851;42.984;20.336;2023-10-09T01:39:53;31.10;;;14.93;;
55330;SDS011;58851;42.984;20.336;2023-10-09T01:42:24;28.80;;;14.35;;
55330;SDS011;58851;42.984;20.336;2023-10-09T01:45:03;28.73;;;14.15;;
55330;SDS011;58851;42.984;20.336;2023-10-09T01:47:55;33.55;;;15.13;;
55330;SDS011;58851;42.984;20.336;2023-10-09T01:50:21;32.53;;;16.27;;
55330;SDS011;58851;42.984;20.336;2023-10-09T01:52:55;42.13;;;17.40;;
55330;SDS011;58851;42.984;20.336;2023-10-09T01:55:21;49.50;;;23.60;;
55330;SDS011;58851;42.984;20.336;2023-10-09T01:58:13;32.90;;;16.63;;
55330;SDS011;58851;42.984;20.336;2023-10-09T02:00:49;24.50;;;12.95;;
55330;SDS011;58851;42.984;20.336;2023-10-09T02:03:19;29.38;;;15.18;;
55330;SDS011;58851;42.984;20.336;2023-10-09T02:05:49;25.10;;;14.45;;
55330;SDS011;58851;42.984;20.336;2023-10-09T02:08:19;25.05;;;13.38;;
55330;SDS011;58851;42.984;20.336;2023-10-09T02:10:52;29.80;;;14.68;;
55330;SDS011;58851;42.984;20.336;2023-10-09T02:13:21;33.00;;;17.88;;
55330;SDS011;58851;42.984;20.336;2023-10-09T02:16:00;45.17;;;18.48;;
55330;SDS011;58851;42.984;20.336;2023-10-09T02:18:53;45.22;;;22.67;;
55330;SDS011;58851;42.984;20.336;2023-10-09T02:21:21;52.72;;;27.27;;
55330;SDS011;58851;42.984;20.336;2023-10-09T02:24:05;81.90;;;41.55;;
55330;SDS011;58851;42.984;20.336;2023-10-09T02:26:51;84.70;;;44.28;;
55330;SDS011;58851;42.984;20.336;2023-10-09T02:29:16;88.65;;;47.15;;
55330;SDS011;58851;42.984;20.336;2023-10-09T02:31:42;98.50;;;48.92;;
55330;SDS011;58851;42.984;20.336;2023-10-09T02:34:17;90.88;;;47.20;;
55330;SDS011;58851;42.984;20.336;2023-10-09T02:36:53;77.32;;;39.72;;
55330;SDS011;58851;42.984;20.336;2023-10-09T02:39:31;65.88;;;33.38;;
55330;SDS011;58851;42.984;20.336;2023-10-09T02:42:08;54.67;;;27.35;;
55330;SDS011;58851;42.984;20.336;2023-10-09T02:44:37;44.67;;;25.20;;
55330;SDS011;58851;42.984;20.336;2023-10-09T02:47:11;57.43;;;31.80;;
55330;SDS011;58851;42.984;20.336;2023-10-09T02:49:45;51.72;;;26.85;;
55330;SDS011;58851;42.984;20.336;2023-10-09T02:52:13;34.33;;;15.68;;
55330;SDS011;58851;42.984;20.336;2023-10-09T02:54:43;24.25;;;12.05;;
55330;SDS011;58851;42.984;20.336;2023-10-09T02:57:13;27.70;;;14.00;;
55330;SDS011;58851;42.984;20.336;2023-10-09T02:59:48;38.90;;;19.90;;
55330;SDS011;58851;42.984;20.336;2023-10-09T03:02:17;62.00;;;33.00;;
55330;SDS011;58851;42.984;20.336;2023-10-09T03:04:43;58.60;;;30.83;;
55330;SDS011;58851;42.984;20.336;2023-10-09T03:07:09;70.82;;;36.17;;
55330;SDS011;58851;42.984;20.336;2023-10-09T03:09:39;52.25;;;28.27;;
55330;SDS011;58851;42.984;20.336;2023-10-09T03:12:06;44.28;;;20.10;;
55330;SDS011;58851;42.984;20.336;2023-10-09T03:14:35;33.03;;;16.33;;
55330;SDS011;58851;42.984;20.336;2023-10-09T03:17:06;38.67;;;20.40;;
55330;SDS011;58851;42.984;20.336;2023-10-09T03:19:36;30.55;;;16.55;;
55330;SDS011;58851;42.984;20.336;2023-10-09T03:22:03;25.38;;;12.20;;
55330;SDS011;58851;42.984;20.336;2023-10-09T03:24:29;25.30;;;13.45;;
55330;SDS011;58851;42.984;20.336;2023-10-09T03:26:58;21.25;;;12.90;;
55330;SDS011;58851;42.984;20.336;2023-10-09T03:29:25;21.20;;;12.82;;
55330;SDS011;58851;42.984;20.336;2023-10-09T03:31:52;21.15;;;12.15;;
55330;SDS011;58851;42.984;20.336;2023-10-09T03:34:20;24.90;;;13.05;;
55330;SDS011;58851;42.984;20.336;2023-10-09T03:36:46;22.27;;;13.35;;
55330;SDS011;58851;42.984;20.336;2023-10-09T03:39:13;25.75;;;12.38;;
55330;SDS011;58851;42.984;20.336;2023-10-09T03:41:57;24.05;;;11.98;;
55330;SDS011;58851;42.984;20.336;2023-10-09T03:44:24;24.15;;;13.13;;
55330;SDS011;58851;42.984;20.336;2023-10-09T03:46:53;23.10;;;13.45;;
55330;SDS011;58851;42.984;20.336;2023-10-09T03:49:19;23.27;;;13.15;;
55330;SDS011;58851;42.984;20.336;2023-10-09T03:51:50;23.38;;;13.48;;
55330;SDS011;58851;42.984;20.336;2023-10-09T03:54:17;24.73;;;14.48;;
55330;SDS011;58851;42.984;20.336;2023-10-09T03:56:46;21.10;;;12.85;;
55330;SDS011;58851;42.984;20.336;2023-10-09T03:59:15;25.50;;;14.70;;
55330;SDS011;58851;42.984;20.336;2023-10-09T04:01:45;26.60;;;13.50;;
55330;SDS011;58851;42.984;20.336;2023-10-09T04:04:13;22.48;;;11.52;;
55330;SDS011;58851;42.984;20.336;2023-10-09T04:06:39;20.33;;;11.00;;
55330;SDS011;58851;42.984;20.336;2023-10-09T04:09:09;24.08;;;11.70;;
55330;SDS011;58851;42.984;20.336;2023-10-09T04:11:54;17.77;;;10.13;;
55330;SDS011;58851;42.984;20.336;2023-10-09T04:14:39;12.90;;;8.45;;
55330;SDS011;58851;42.984;20.336;2023-10-09T04:17:26;19.25;;;8.80;;
55330;SDS011;58851;42.984;20.336;2023-10-09T04:19:54;16.52;;;7.93;;
55330;SDS011;58851;42.984;20.336;2023-10-09T04:22:39;12.63;;;7.97;;
55330;SDS011;58851;42.984;20.336;2023-10-09T04:25:24;13.30;;;8.60;;
55330;SDS011;58851;42.984;20.336;2023-10-09T04:27:54;15.80;;;8.60;;
55330;SDS011;58851;42.984;20.336;2023-10-09T04:30:39;18.05;;;8.65;;
55330;SDS011;58851;42.984;20.336;2023-10-09T04:33:08;12.75;;;8.13;;
55330;SDS011;58851;42.984;20.336;2023-10-09T04:36:09;16.35;;;8.43;;
55330;SDS011;58851;42.984;20.336;2023-10-09T04:38:41;14.15;;;7.22;;
55330;SDS011;58851;42.984;20.336;2023-10-09T04:41:20;11.55;;;6.63;;
55330;SDS011;58851;42.984;20.336;2023-10-09T04:43:53;15.00;;;7.45;;
55330;SDS011;58851;42.984;20.336;2023-10-09T04:46:30;19.92;;;10.27;;
55330;SDS011;58851;42.984;20.336;2023-10-09T04:49:09;16.90;;;8.20;;
55330;SDS011;58851;42.984;20.336;2023-10-09T04:51:54;20.13;;;9.70;;
55330;SDS011;58851;42.984;20.336;2023-10-09T04:54:43;23.08;;;13.77;;
55330;SDS011;58851;42.984;20.336;2023-10-09T04:57:42;32.60;;;16.75;;
55330;SDS011;58851;42.984;20.336;2023-10-09T05:00:13;47.47;;;27.27;;
55330;SDS011;58851;42.984;20.336;2023-10-09T05:02:51;51.95;;;29.83;;
55330;SDS011;58851;42.984;20.336;2023-10-09T05:05:30;47.28;;;28.55;;
55330;SDS011;58851;42.984;20.336;2023-10-09T05:08:05;46.20;;;27.77;;
55330;SDS011;58851;42.984;20.336;2023-10-09T05:10:44;45.42;;;26.73;;
55330;SDS011;58851;42.984;20.336;2023-10-09T05:13:36;42.78;;;26.40;;
55330;SDS011;58851;42.984;20.336;2023-10-09T05:16:05;38.60;;;21.92;;
55330;SDS011;58851;42.984;20.336;2023-10-09T05:18:38;30.58;;;16.80;;
55330;SDS011;58851;42.984;20.336;2023-10-09T05:21:07;25.05;;;16.67;;
55330;SDS011;58851;42.984;20.336;2023-10-09T05:23:42;33.22;;;21.70;;
55330;SDS011;58851;42.984;20.336;2023-10-09T05:26:17;23.33;;;13.65;;
55330;SDS011;58851;42.984;20.336;2023-10-09T05:29:15;23.92;;;12.73;;
55330;SDS011;58851;42.984;20.336;2023-10-09T05:31:51;24.92;;;14.18;;
55330;SDS011;58851;42.984;20.336;2023-10-09T05:34:32;21.65;;;14.25;;
55330;SDS011;58851;42.984;20.336;2023-10-09T05:37:16;27.50;;;18.58;;
55330;SDS011;58851;42.984;20.336;2023-10-09T05:39:43;23.85;;;14.73;;
55330;SDS011;58851;42.984;20.336;2023-10-09T05:42:23;18.50;;;12.60;;
55330;SDS011;58851;42.984;20.336;2023-10-09T05:44:54;37.70;;;20.52;;
55330;SDS011;58851;42.984;20.336;2023-10-09T05:47:38;27.63;;;15.97;;
55330;SDS011;58851;42.984;20.336;2023-10-09T05:50:08;32.85;;;15.23;;
55330;SDS011;58851;42.984;20.336;2023-10-09T05:52:34;26.27;;;16.05;;
55330;SDS011;58851;42.984;20.336;2023-10-09T05:55:03;23.67;;;15.40;;
55330;SDS011;58851;42.984;20.336;2023-10-09T05:57:44;23.55;;;14.32;;
55330;SDS011;58851;42.984;20.336;2023-10-09T06:00:29;39.10;;;24.55;;
55330;SDS011;58851;42.984;20.336;2023-10-09T06:03:13;36.75;;;22.42;;
55330;SDS011;58851;42.984;20.336;2023-10-09T06:05:51;34.72;;;22.00;;
55330;SDS011;58851;42.984;20.336;2023-10-09T06:08:26;41.67;;;26.92;;
55330;SDS011;58851;42.984;20.336;2023-10-09T06:11:13;33.72;;;22.95;;
55330;SDS011;58851;42.984;20.336;2023-10-09T06:14:01;41.13;;;27.42;;
55330;SDS011;58851;42.984;20.336;2023-10-09T06:16:38;43.35;;;26.52;;
55330;SDS011;58851;42.984;20.336;2023-10-09T06:19:08;37.92;;;25.88;;
55330;SDS011;58851;42.984;20.336;2023-10-09T06:21:51;36.92;;;25.35;;
55330;SDS011;58851;42.984;20.336;2023-10-09T06:24:39;42.85;;;23.08;;
55330;SDS011;58851;42.984;20.336;2023-10-09T06:27:28;32.03;;;20.75;;
55330;SDS011;58851;42.984;20.336;2023-10-09T06:29:54;33.33;;;23.33;;
55330;SDS011;58851;42.984;20.336;2023-10-09T06:32:39;35.67;;;24.97;;
55330;SDS011;58851;42.984;20.336;2023-10-09T06:35:34;29.67;;;20.50;;
55330;SDS011;58851;42.984;20.336;2023-10-09T06:38:01;26.58;;;19.50;;
55330;SDS011;58851;42.984;20.336;2023-10-09T06:40:27;32.67;;;16.88;;
55330;SDS011;58851;42.984;20.336;2023-10-09T06:43:16;27.25;;;16.77;;
55330;SDS011;58851;42.984;20.336;2023-10-09T06:45:41;27.00;;;16.65;;
55330;SDS011;58851;42.984;20.336;2023-10-09T06:48:11;23.48;;;16.35;;
55330;SDS011;58851;42.984;20.336;2023-10-09T06:51:07;27.40;;;15.85;;
55330;SDS011;58851;42.984;20.336;2023-10-09T06:53:39;23.70;;;15.88;;
55330;SDS011;58851;42.984;20.336;2023-10-09T06:56:18;24.17;;;15.07;;
55330;SDS011;58851;42.984;20.336;2023-10-09T06:59:02;27.40;;;14.88;;
55330;SDS011;58851;42.984;20.336;2023-10-09T07:01:40;17.67;;;12.73;;
55330;SDS011;58851;42.984;20.336;2023-10-09T07:04:12;20.52;;;11.77;;
55330;SDS011;58851;42.984;20.336;2023-10-09T07:06:47;18.27;;;10.52;;
55330;SDS011;58851;42.984;20.336;2023-10-09T07:09:14;17.85;;;11.05;;
55330;SDS011;58851;42.984;20.336;2023-10-09T07:11:44;23.70;;;12.25;;
55330;SDS011;58851;42.984;20.336;2023-10-09T07:14:32;15.57;;;9.67;;
55330;SDS011;58851;42.984;20.336;2023-10-09T07:19:29;26.58;;;11.68;;
55330;SDS011;58851;42.984;20.336;2023-10-09T07:21:59;31.08;;;14.75;;
55330;SDS011;58851;42.984;20.336;2023-10-09T07:24:30;27.92;;;17.73;;
55330;SDS011;58851;42.984;20.336;2023-10-09T07:27:08;25.05;;;11.05;;
55330;SDS011;58851;42.984;20.336;2023-10-09T07:29:39;15.65;;;10.15;;
55330;SDS011;58851;42.984;20.336;2023-10-09T07:32:14;19.02;;;9.43;;
55330;SDS011;58851;42.984;20.336;2023-10-09T07:34:46;22.85;;;9.25;;
55330;SDS011;58851;42.984;20.336;2023-10-09T07:37:21;13.57;;;7.57;;
55330;SDS011;58851;42.984;20.336;2023-10-09T07:40:03;11.35;;;7.18;;
55330;SDS011;58851;42.984;20.336;2023-10-09T07:42:33;11.18;;;6.63;;
55330;SDS011;58851;42.984;20.336;2023-10-09T07:45:02;11.45;;;4.07;;
55330;SDS011;58851;42.984;20.336;2023-10-09T07:47:50;8.35;;;3.83;;
55330;SDS011;58851;42.984;20.336;2023-10-09T07:50:24;11.07;;;5.18;;
55330;SDS011;58851;42.984;20.336;2023-10-09T07:53:06;9.05;;;4.55;;
55330;SDS011;58851;42.984;20.336;2023-10-09T07:55:51;8.68;;;4.07;;
55330;SDS011;58851;42.984;20.336;2023-10-09T07:58:22;9.95;;;3.90;;
55330;SDS011;58851;42.984;20.336;2023-10-09T08:00:57;9.35;;;3.05;;
55330;SDS011;58851;42.984;20.336;2023-10-09T08:03:25;9.60;;;4.55;;
55330;SDS011;58851;42.984;20.336;2023-10-09T08:05:57;6.72;;;3.22;;
55330;SDS011;58851;42.984;20.336;2023-10-09T08:08:43;7.32;;;3.60;;
55330;SDS011;58851;42.984;20.336;2023-10-09T08:11:29;8.98;;;4.20;;
55330;SDS011;58851;42.984;20.336;2023-10-09T08:14:05;10.43;;;5.45;;
55330;SDS011;58851;42.984;20.336;2023-10-09T08:16:47;6.70;;;3.70;;
55330;SDS011;58851;42.984;20.336;2023-10-09T08:19:31;6.43;;;4.03;;
55330;SDS011;58851;42.984;20.336;2023-10-09T08:21:59;7.18;;;4.10;;
55330;SDS011;58851;42.984;20.336;2023-10-09T08:24:45;7.35;;;3.65;;
55330;SDS011;58851;42.984;20.336;2023-10-09T08:29:59;5.97;;;2.90;;
55330;SDS011;58851;42.984;20.336;2023-10-09T08:32:45;5.70;;;2.70;;
55330;SDS011;58851;42.984;20.336;2023-10-09T08:35:50;7.65;;;2.47;;
55330;SDS011;58851;42.984;20.336;2023-10-09T08:38:17;10.32;;;5.13;;
55330;SDS011;58851;42.984;20.336;2023-10-09T08:40:52;6.32;;;4.05;;
55330;SDS011;58851;42.984;20.336;2023-10-09T08:43:23;4.95;;;2.63;;
55330;SDS011;58851;42.984;20.336;2023-10-09T08:45:51;7.90;;;3.25;;
55330;SDS011;58851;42.984;20.336;2023-10-09T08:48:19;10.18;;;3.63;;
55330;SDS011;58851;42.984;20.336;2023-10-09T08:50:52;7.35;;;2.30;;
55330;SDS011;58851;42.984;20.336;2023-10-09T08:53:20;6.85;;;2.75;;
55330;SDS011;58851;42.984;20.336;2023-10-09T08:55:47;8.10;;;4.15;;
55330;SDS011;58851;42.984;20.336;2023-10-09T08:58:16;6.68;;;2.92;;
55330;SDS011;58851;42.984;20.336;2023-10-09T09:00:50;6.53;;;3.13;;
55330;SDS011;58851;42.984;20.336;2023-10-09T09:03:19;6.25;;;2.55;;
55330;SDS011;58851;42.984;20.336;2023-10-09T09:05:57;6.85;;;2.05;;
55330;SDS011;58851;42.984;20.336;2023-10-09T09:08:28;6.28;;;2.80;;
55330;SDS011;58851;42.984;20.336;2023-10-09T09:11:05;8.75;;;2.17;;
55330;SDS011;58851;42.984;20.336;2023-10-09T09:13:43;5.53;;;2.25;;
55330;SDS011;58851;42.984;20.336;2023-10-09T09:16:23;5.50;;;2.33;;
55330;SDS011;58851;42.984;20.336;2023-10-09T09:19:03;8.25;;;2.25;;
55330;SDS011;58851;42.984;20.336;2023-10-09T09:21:31;8.90;;;2.33;;
55330;SDS011;58851;42.984;20.336;2023-10-09T09:24:09;6.85;;;3.28;;
55330;SDS011;58851;42.984;20.336;2023-10-09T09:26:45;11.00;;;2.90;;
55330;SDS011;58851;42.984;20.336;2023-10-09T09:29:11;8.32;;;2.40;;
55330;SDS011;58851;42.984;20.336;2023-10-09T09:31:38;7.88;;;3.15;;
55330;SDS011;58851;42.984;20.336;2023-10-09T09:34:17;10.15;;;2.45;;
55330;SDS011;58851;42.984;20.336;2023-10-09T09:36:49;7.05;;;2.40;;
55330;SDS011;58851;42.984;20.336;2023-10-09T09:39:25;7.20;;;3.10;;
55330;SDS011;58851;42.984;20.336;2023-10-09T09:41:56;5.18;;;2.78;;
55330;SDS011;58851;42.984;20.336;2023-10-09T09:44:30;7.35;;;2.92;;
55330;SDS011;58851;42.984;20.336;2023-10-09T09:47:01;10.35;;;2.97;;
55330;SDS011;58851;42.984;20.336;2023-10-09T09:49:31;5.25;;;2.28;;
55330;SDS011;58851;42.984;20.336;2023-10-09T09:52:02;5.88;;;1.95;;
55330;SDS011;58851;42.984;20.336;2023-10-09T09:54:28;5.57;;;2.30;;
55330;SDS011;58851;42.984;20.336;2023-10-09T09:56:58;15.85;;;4.18;;
55330;SDS011;58851;42.984;20.336;2023-10-09T09:59:33;8.60;;;2.80;;
55330;SDS011;58851;42.984;20.336;2023-10-09T10:02:29;15.82;;;3.90;;
55330;SDS011;58851;42.984;20.336;2023-10-09T10:05:01;5.60;;;2.55;;
55330;SDS011;58851;42.984;20.336;2023-10-09T10:07:31;9.32;;;2.55;;
55330;SDS011;58851;42.984;20.336;2023-10-09T10:13:03;5.32;;;2.95;;
55330;SDS011;58851;42.984;20.336;2023-10-09T10:21:35;8.13;;;3.97;;
55330;SDS011;58851;42.984;20.336;2023-10-09T10:32:52;12.32;;;4.63;;
55330;SDS011;58851;42.984;20.336;2023-10-09T10:35:40;12.70;;;5.28;;
55330;SDS011;58851;42.984;20.336;2023-10-09T10:41:18;13.73;;;7.28;;
55330;SDS011;58851;42.984;20.336;2023-10-09T10:43:47;14.75;;;3.67;;
55330;SDS011;58851;42.984;20.336;2023-10-09T10:46:17;14.10;;;3.50;;
55330;SDS011;58851;42.984;20.336;2023-10-09T10:49:00;15.68;;;3.70;;
55330;SDS011;58851;42.984;20.336;2023-10-09T10:51:56;9.77;;;2.78;;
55330;SDS011;58851;42.984;20.336;2023-10-09T10:54:47;17.88;;;4.63;;
55330;SDS011;58851;42.984;20.336;2023-10-09T10:57:35;19.23;;;4.00;;
55330;SDS011;58851;42.984;20.336;2023-10-09T11:00:27;18.63;;;6.18;;
55330;SDS011;58851;42.984;20.336;2023-10-09T11:03:19;12.60;;;3.13;;
55330;SDS011;58851;42.984;20.336;2023-10-09T11:06:03;18.85;;;4.60;;
55330;SDS011;58851;42.984;20.336;2023-10-09T11:08:46;13.23;;;4.45;;
55330;SDS011;58851;42.984;20.336;2023-10-09T11:11:33;15.52;;;4.50;;
55330;SDS011;58851;42.984;20.336;2023-10-09T11:14:12;15.90;;;4.45;;
55330;SDS011;58851;42.984;20.336;2023-10-09T11:16:48;19.38;;;4.88;;
55330;SDS011;58851;42.984;20.336;2023-10-09T11:21:55;15.50;;;4.03;;
55330;SDS011;58851;42.984;20.336;2023-10-09T11:24:30;14.20;;;3.70;;
55330;SDS011;58851;42.984;20.336;2023-10-09T11:27:03;12.30;;;3.38;;
55330;SDS011;58851;42.984;20.336;2023-10-09T11:29:31;10.35;;;3.40;;
55330;SDS011;58851;42.984;20.336;2023-10-09T11:32:19;13.40;;;4.00;;
55330;SDS011;58851;42.984;20.336;2023-10-09T11:34:50;13.25;;;3.30;;
55330;SDS011;58851;42.984;20.336;2023-10-09T11:37:33;17.27;;;5.07;;
55330;SDS011;58851;42.984;20.336;2023-10-09T11:40:14;9.75;;;2.97;;
55330;SDS011;58851;42.984;20.336;2023-10-09T11:43:16;17.75;;;4.72;;
55330;SDS011;58851;42.984;20.336;2023-10-09T11:45:42;27.58;;;4.80;;
55330;SDS011;58851;42.984;20.336;2023-10-09T11:48:20;17.38;;;4.10;;
55330;SDS011;58851;42.984;20.336;2023-10-09T11:50:53;15.47;;;4.67;;
55330;SDS011;58851;42.984;20.336;2023-10-09T11:53:41;12.82;;;3.33;;
55330;SDS011;58851;42.984;20.336;2023-10-09T11:56:14;14.57;;;3.42;;
55330;SDS011;58851;42.984;20.336;2023-10-09T11:58:46;15.68;;;4.00;;
55330;SDS011;58851;42.984;20.336;2023-10-09T12:01:15;23.05;;;4.93;;
55330;SDS011;58851;42.984;20.336;2023-10-09T12:03:48;18.27;;;5.28;;
55330;SDS011;58851;42.984;20.336;2023-10-09T12:06:19;13.07;;;5.47;;
55330;SDS011;58851;42.984;20.336;2023-10-09T12:08:49;13.05;;;3.25;;
55330;SDS011;58851;42.984;20.336;2023-10-09T12:11:16;15.88;;;3.90;;
55330;SDS011;58851;42.984;20.336;2023-10-09T12:13:48;19.27;;;7.25;;
55330;SDS011;58851;42.984;20.336;2023-10-09T12:16:14;19.08;;;4.68;;
55330;SDS011;58851;42.984;20.336;2023-10-09T12:18:42;17.17;;;4.35;;
55330;SDS011;58851;42.984;20.336;2023-10-09T12:21:18;20.25;;;5.82;;
55330;SDS011;58851;42.984;20.336;2023-10-09T12:23:44;16.80;;;3.97;;
55330;SDS011;58851;42.984;20.336;2023-10-09T12:26:12;15.80;;;3.67;;
55330;SDS011;58851;42.984;20.336;2023-10-09T12:28:41;18.23;;;6.38;;
55330;SDS011;58851;42.984;20.336;2023-10-09T12:31:14;22.33;;;6.18;;
55330;SDS011;58851;42.984;20.336;2023-10-09T12:33:40;20.50;;;8.02;;
55330;SDS011;58851;42.984;20.336;2023-10-09T12:36:11;25.75;;;6.28;;
55330;SDS011;58851;42.984;20.336;2023-10-09T12:38:45;18.42;;;5.32;;
55330;SDS011;58851;42.984;20.336;2023-10-09T12:41:24;22.40;;;4.35;;
55330;SDS011;58851;42.984;20.336;2023-10-09T12:43:53;18.45;;;5.00;;
55330;SDS011;58851;42.984;20.336;2023-10-09T12:46:20;15.45;;;4.57;;
55330;SDS011;58851;42.984;20.336;2023-10-09T12:48:50;18.88;;;5.28;;
55330;SDS011;58851;42.984;20.336;2023-10-09T12:51:19;20.00;;;5.47;;
55330;SDS011;58851;42.984;20.336;2023-10-09T12:53:50;21.70;;;5.53;;
55330;SDS011;58851;42.984;20.336;2023-10-09T12:56:22;21.35;;;6.82;;
55330;SDS011;58851;42.984;20.336;2023-10-09T12:58:58;18.33;;;5.82;;
55330;SDS011;58851;42.984;20.336;2023-10-09T13:01:26;20.23;;;4.85;;
55330;SDS011;58851;42.984;20.336;2023-10-09T13:03:57;18.55;;;5.35;;
55330;SDS011;58851;42.984;20.336;2023-10-09T13:06:25;22.30;;;4.63;;
55330;SDS011;58851;42.984;20.336;2023-10-09T13:08:51;21.08;;;5.13;;
55330;SDS011;58851;42.984;20.336;2023-10-09T13:11:17;18.05;;;4.60;;
55330;SDS011;58851;42.984;20.336;2023-10-09T13:13:44;15.18;;;5.13;;
55330;SDS011;58851;42.984;20.336;2023-10-09T13:16:17;16.13;;;5.05;;
55330;SDS011;58851;42.984;20.336;2023-10-09T13:18:53;26.07;;;7.37;;
55330;SDS011;58851;42.984;20.336;2023-10-09T13:21:23;14.90;;;4.32;;
55330;SDS011;58851;42.984;20.336;2023-10-09T13:23:57;19.50;;;3.67;;
55330;SDS011;58851;42.984;20.336;2023-10-09T13:26:23;20.58;;;5.20;;
55330;SDS011;58851;42.984;20.336;2023-10-09T13:28:55;18.77;;;4.70;;
55330;SDS011;58851;42.984;20.336;2023-10-09T13:31:23;20.60;;;5.07;;
55330;SDS011;58851;42.984;20.336;2023-10-09T13:33:53;26.20;;;5.40;;
55330;SDS011;58851;42.984;20.336;2023-10-09T13:36:20;17.65;;;5.47;;
55330;SDS011;58851;42.984;20.336;2023-10-09T13:38:59;22.63;;;5.53;;
55330;SDS011;58851;42.984;20.336;2023-10-09T13:41:45;16.58;;;4.60;;
55330;SDS011;58851;42.984;20.336;2023-10-09T13:44:11;21.92;;;6.30;;
55330;SDS011;58851;42.984;20.336;2023-10-09T13:46:37;27.85;;;6.10;;
55330;SDS011;58851;42.984;20.336;2023-10-09T13:49:06;28.85;;;7.05;;
55330;SDS011;58851;42.984;20.336;2023-10-09T13:51:40;19.45;;;5.72;;
55330;SDS011;58851;42.984;20.336;2023-10-09T13:54:12;33.22;;;6.60;;
55330;SDS011;58851;42.984;20.336;2023-10-09T13:57:04;23.73;;;7.22;;
55330;SDS011;58851;42.984;20.336;2023-10-09T13:59:34;20.35;;;5.15;;
55330;SDS011;58851;42.984;20.336;2023-10-09T14:02:09;16.23;;;4.90;;
55330;SDS011;58851;42.984;20.336;2023-10-09T14:04:35;13.95;;;4.68;;
55330;SDS011;58851;42.984;20.336;2023-10-09T14:07:01;18.00;;;5.80;;
55330;SDS011;58851;42.984;20.336;2023-10-09T14:09:30;21.23;;;5.45;;
55330;SDS011;58851;42.984;20.336;2023-10-09T14:11:57;16.38;;;4.57;;
55330;SDS011;58851;42.984;20.336;2023-10-09T14:17:05;15.85;;;5.07;;
55330;SDS011;58851;42.984;20.336;2023-10-09T14:19:37;28.58;;;7.28;;
55330;SDS011;58851;42.984;20.336;2023-10-09T14:22:13;21.08;;;6.72;;
55330;SDS011;58851;42.984;20.336;2023-10-09T14:24:50;21.58;;;6.63;;
55330;SDS011;58851;42.984;20.336;2023-10-09T14:27:23;29.38;;;7.57;;
55330;SDS011;58851;42.984;20.336;2023-10-09T14:29:52;22.20;;;6.25;;
55330;SDS011;58851;42.984;20.336;2023-10-09T14:32:24;14.43;;;5.32;;
55330;SDS011;58851;42.984;20.336;2023-10-09T14:34:56;21.90;;;5.40;;
55330;SDS011;58851;42.984;20.336;2023-10-09T14:37:37;24.47;;;4.77;;
55330;SDS011;58851;42.984;20.336;2023-10-09T14:40:05;28.02;;;6.93;;
55330;SDS011;58851;42.984;20.336;2023-10-09T14:42:38;23.83;;;7.73;;
55330;SDS011;58851;42.984;20.336;2023-10-09T14:45:10;24.40;;;7.15;;
55330;SDS011;58851;42.984;20.336;2023-10-09T14:47:44;21.70;;;6.63;;
55330;SDS011;58851;42.984;20.336;2023-10-09T14:50:12;25.02;;;6.28;;
55330;SDS011;58851;42.984;20.336;2023-10-09T14:52:38;27.17;;;8.05;;
55330;SDS011;58851;42.984;20.336;2023-10-09T14:55:05;22.08;;;8.48;;
55330;SDS011;58851;42.984;20.336;2023-10-09T14:57:32;22.83;;;7.38;;
55330;SDS011;58851;42.984;20.336;2023-10-09T15:00:00;20.75;;;7.22;;
55330;SDS011;58851;42.984;20.336;2023-10-09T15:02:32;23.48;;;7.80;;
55330;SDS011;58851;42.984;20.336;2023-10-09T15:04:58;25.30;;;7.80;;
55330;SDS011;58851;42.984;20.336;2023-10-09T15:07:24;36.33;;;7.53;;
55330;SDS011;58851;42.984;20.336;2023-10-09T15:09:50;24.00;;;8.07;;
55330;SDS011;58851;42.984;20.336;2023-10-09T15:12:17;34.25;;;8.02;;
55330;SDS011;58851;42.984;20.336;2023-10-09T15:14:43;25.67;;;8.45;;
55330;SDS011;58851;42.984;20.336;2023-10-09T15:17:10;22.27;;;8.50;;
55330;SDS011;58851;42.984;20.336;2023-10-09T15:19:36;24.73;;;8.18;;
55330;SDS011;58851;42.984;20.336;2023-10-09T15:22:02;24.02;;;7.30;;
55330;SDS011;58851;42.984;20.336;2023-10-09T15:24:33;30.75;;;9.65;;
55330;SDS011;58851;42.984;20.336;2023-10-09T15:26:59;32.70;;;8.10;;
55330;SDS011;58851;42.984;20.336;2023-10-09T15:29:25;38.80;;;8.68;;